Time;durP1;ratioP1;P1;durP2;ratioP2;P2;SDS_P1;SDS_P2;PMS_P1;PMS_P2;Temp;Humidity;BMP_temperature;BMP_pressure;BME280_temperature;BME280_humidity;BME280_pressure;Samples;Min_cycle;Max_cycle;Signal;HPM_P1;HPM_P2
2022/09/06 00:02:17;;;;;;;6.43;0.87;;;;;;;18.81;81.33;100230.25;5043185;28;20499;-51
2022/09/06 00:04:44;;;;;;;1.20;1.10;;;;;;;18.86;81.04;100236.19;5043534;28;20459;-51
2022/09/06 00:07:11;;;;;;;3.50;1.03;;;;;;;18.88;81.65;100230.69;5043599;28;20483;-51
2022/09/06 00:09:37;;;;;;;9.83;1.13;;;;;;;18.99;80.86;100230.00;5036740;28;20924;-51
2022/09/06 00:12:04;;;;;;;1.23;1.13;;;;;;;18.81;80.73;100234.75;5036840;28;21212;-51
2022/09/06 00:14:30;;;;;;;1.10;1.00;;;;;;;18.76;80.46;100232.34;5050113;28;20946;-51
2022/09/06 00:16:56;;;;;;;2.60;1.40;;;;;;;18.67;81.22;100221.31;5043970;28;20994;-51
2022/09/06 00:19:23;;;;;;;0.73;0.70;;;;;;;18.73;81.07;100226.28;5037161;28;20450;-51
2022/09/06 00:21:49;;;;;;;0.70;0.70;;;;;;;18.75;81.31;100235.13;5036597;28;20506;-52
2022/09/06 00:24:16;;;;;;;0.73;0.70;;;;;;;18.70;82.17;100243.50;5042140;28;20456;-51
2022/09/06 00:26:42;;;;;;;4.20;1.43;;;;;;;18.87;81.57;100240.59;5042939;28;20474;-50
2022/09/06 00:29:09;;;;;;;3.93;1.40;;;;;;;18.90;81.44;100231.47;5037744;28;20459;-51
2022/09/06 00:31:35;;;;;;;1.37;0.93;;;;;;;18.88;80.67;100228.00;5036364;28;20474;-52
2022/09/06 00:34:02;;;;;;;2.83;1.60;;;;;;;18.91;80.87;100228.69;5049682;28;20455;-51
2022/09/06 00:36:28;;;;;;;0.80;0.80;;;;;;;18.79;81.50;100236.69;5036149;28;20478;-52
2022/09/06 00:38:55;;;;;;;1.20;1.10;;;;;;;18.78;82.10;100235.81;5041401;28;20957;-51
2022/09/06 00:41:22;;;;;;;0.87;0.83;;;;;;;18.89;81.26;100243.19;5043033;28;20498;-51
2022/09/06 00:43:48;;;;;;;4.93;2.27;;;;;;;18.71;82.30;100245.25;5037549;28;20982;-51
2022/09/06 00:46:18;;;;;;;0.93;0.80;;;;;;;18.59;82.88;100241.44;5035623;28;20868;-52
2022/09/06 00:48:49;;;;;;;2.27;1.30;;;;;;;18.62;83.03;100246.63;5038257;28;20992;-52
2022/09/06 00:51:17;;;;;;;1.43;1.33;;;;;;;18.67;83.15;100256.31;5035940;28;20477;-51
2022/09/06 00:53:43;;;;;;;1.97;1.40;;;;;;;18.69;83.07;100254.38;5039999;28;20965;-51
2022/09/06 00:56:11;;;;;;;3.07;1.47;;;;;;;18.89;83.10;100275.53;5042677;28;20481;-51
2022/09/06 00:58:37;;;;;;;0.80;0.77;;;;;;;19.05;82.09;100286.19;5038764;28;20455;-51
2022/09/06 01:01:05;;;;;;;1.30;1.20;;;;;;;19.18;81.93;100301.47;5059036;28;20635;-51
2022/09/06 01:03:32;;;;;;;2.70;0.93;;;;;;;19.19;81.54;100338.28;5039739;28;20455;-51
2022/09/06 01:06:17;;;;;;;2.30;2.10;;;;;;;19.34;80.42;100365.22;5035794;28;20474;-51
2022/09/06 01:08:54;;;;;;;4.23;1.00;;;;;;;19.40;80.82;100389.94;5035886;28;20570;-52
2022/09/06 01:11:50;;;;;;;19.30;1.63;;;;;;;19.41;83.95;100385.41;5029253;28;20937;-52
2022/09/06 01:14:55;;;;;;;1.00;0.90;;;;;;;20.18;81.87;100413.72;5042360;28;20447;-51
2022/09/06 01:17:40;;;;;;;2.20;0.83;;;;;;;20.65;80.92;100442.94;5042545;28;20478;-52
2022/09/06 01:20:09;;;;;;;1.30;1.30;;;;;;;20.86;79.23;100455.00;5042473;28;20446;-51
2022/09/06 01:23:14;;;;;;;6.27;1.33;;;;;;;21.06;81.17;100460.88;5036317;28;20494;-51
2022/09/06 01:26:02;;;;;;;2.07;1.10;;;;;;;21.13;86.62;100465.75;5036315;28;20489;-51
2022/09/06 01:28:39;;;;;;;16.63;0.90;;;;;;;20.79;93.02;100456.38;5046909;28;20450;-50
2022/09/06 01:31:24;;;;;;;29.80;1.90;;;;;;;20.63;100.00;100470.06;5039332;28;20453;-52
2022/09/06 01:34:02;;;;;;;2.37;1.07;;;;;;;20.58;100.00;100464.13;5035585;28;20455;-51
2022/09/06 01:36:39;;;;;;;2.07;0.93;;;;;;;20.24;100.00;100462.75;5047220;28;20467;-51
2022/09/06 01:39:31;;;;;;;0.60;0.40;;;;;;;20.31;100.00;100458.69;5040287;28;20928;-51
2022/09/06 01:42:04;;;;;;;1.33;0.77;;;;;;;20.53;100.00;100457.28;5035101;28;20490;-51
2022/09/06 01:44:32;;;;;;;1.20;1.10;;;;;;;20.18;100.00;100452.38;5035463;28;20474;-51
2022/09/06 01:47:13;;;;;;;7.60;0.87;;;;;;;20.16;100.00;100454.31;5041434;28;20988;-51
2022/09/06 01:50:05;;;;;;;14.30;0.90;;;;;;;20.15;100.00;100451.69;5041806;28;20453;-51
2022/09/06 01:52:35;;;;;;;1.10;0.87;;;;;;;19.95;100.00;100439.50;5041799;28;20443;-52
2022/09/06 01:55:28;;;;;;;0.80;0.50;;;;;;;19.91;100.00;100422.66;5028804;28;20455;-51
2022/09/06 01:58:30;;;;;;;1.00;0.67;;;;;;;20.30;100.00;100396.69;5042056;28;20471;-51
2022/09/06 02:01:04;;;;;;;4.77;0.77;;;;;;;20.24;100.00;100365.56;5013751;28;20451;-52
2022/09/06 02:03:59;;;;;;;1.80;1.00;;;;;;;20.04;100.00;100369.63;5039094;28;20517;-51
2022/09/06 02:06:31;;;;;;;2.10;0.93;;;;;;;20.16;100.00;100358.97;5033371;28;20676;-51
2022/09/06 02:09:09;;;;;;;1.43;0.60;;;;;;;20.15;100.00;100359.91;5035035;28;20933;-51
2022/09/06 02:11:45;;;;;;;0.97;0.97;;;;;;;20.03;100.00;100361.63;5038438;28;20831;-52
2022/09/06 02:14:22;;;;;;;0.83;0.60;;;;;;;20.00;100.00;100349.16;5041842;28;20452;-51
2022/09/06 02:16:52;;;;;;;0.60;0.60;;;;;;;19.98;100.00;100343.00;5040999;28;20477;-51
2022/09/06 02:19:23;;;;;;;2.97;0.90;;;;;;;20.01;100.00;100328.44;5029005;28;20563;-51
2022/09/06 02:21:51;;;;;;;2.90;0.63;;;;;;;19.94;100.00;100303.72;5042211;28;21061;-51
2022/09/06 02:24:22;;;;;;;0.80;0.60;;;;;;;19.81;100.00;100300.97;5040654;28;20459;-51
2022/09/06 02:26:49;;;;;;;1.87;0.50;;;;;;;19.93;100.00;100275.00;5041630;28;20475;-52
2022/09/06 02:29:16;;;;;;;0.70;0.70;;;;;;;19.94;100.00;100263.25;5036963;28;20465;-51
2022/09/06 02:31:51;;;;;;;1.27;0.60;;;;;;;20.04;100.00;100244.59;5034958;28;20451;-51
2022/09/06 02:34:19;;;;;;;0.70;0.50;;;;;;;20.21;99.64;100249.69;5039017;28;20458;-51
2022/09/06 02:36:47;;;;;;;0.60;0.37;;;;;;;20.19;100.00;100267.84;5041619;28;20476;-51
2022/09/06 02:39:13;;;;;;;0.60;0.40;;;;;;;19.99;100.00;100273.72;5037969;28;20524;-51
2022/09/06 02:41:43;;;;;;;2.53;0.53;;;;;;;19.89;100.00;100280.72;5034432;28;20480;-51
2022/09/06 02:44:09;;;;;;;0.80;0.80;;;;;;;19.89;100.00;100251.91;5038401;28;20447;-52
2022/09/06 02:46:35;;;;;;;0.90;0.90;;;;;;;19.76;100.00;100218.63;5041482;28;20493;-51
2022/09/06 02:49:02;;;;;;;0.60;0.40;;;;;;;19.98;100.00;100205.41;5041771;28;20454;-49
2022/09/06 02:51:29;;;;;;;0.60;0.50;;;;;;;19.93;100.00;100198.59;5038105;28;20948;-51
2022/09/06 02:53:56;;;;;;;0.83;0.70;;;;;;;20.05;100.00;100203.16;5042265;28;20466;-50
2022/09/06 02:56:23;;;;;;;0.50;0.33;;;;;;;19.99;100.00;100211.66;5045005;28;20464;-50
2022/09/06 02:58:50;;;;;;;0.50;0.40;;;;;;;19.97;100.00;100216.28;5042037;28;20952;-50
2022/09/06 03:01:16;;;;;;;0.80;0.80;;;;;;;19.91;100.00;100212.19;5041131;28;20971;-50
2022/09/06 03:03:43;;;;;;;0.70;0.60;;;;;;;19.80;100.00;100212.06;5031650;28;20501;-50
2022/09/06 03:06:09;;;;;;;0.60;0.40;;;;;;;19.73;100.00;100217.00;5047360;28;20475;-50
2022/09/06 03:08:36;;;;;;;1.00;0.43;;;;;;;19.71;100.00;100209.97;5050016;28;20660;-50
2022/09/06 03:11:03;;;;;;;0.50;0.40;;;;;;;19.62;100.00;100203.38;5038118;28;20478;-50
2022/09/06 03:13:29;;;;;;;1.43;0.50;;;;;;;19.46;100.00;100199.94;5039659;28;20448;-50
2022/09/06 03:15:58;;;;;;;0.60;0.60;;;;;;;19.60;100.00;100202.63;5045218;28;20472;-50
2022/09/06 03:18:27;;;;;;;0.80;0.70;;;;;;;19.78;100.00;100195.97;5039034;28;20458;-50
2022/09/06 03:20:54;;;;;;;2.03;0.73;;;;;;;19.88;100.00;100201.63;5027095;28;20488;-50
2022/09/06 03:23:23;;;;;;;0.63;0.60;;;;;;;19.76;100.00;100191.66;5043500;28;20944;-50
2022/09/06 03:25:50;;;;;;;0.70;0.60;;;;;;;19.69;100.00;100187.66;5037673;28;20451;-50
2022/09/06 03:28:18;;;;;;;0.80;0.60;;;;;;;19.68;100.00;100185.91;5038621;28;20463;-50
2022/09/06 03:30:49;;;;;;;2.03;0.87;;;;;;;19.52;100.00;100181.53;5044926;28;20452;-50
2022/09/06 03:33:17;;;;;;;4.40;1.13;;;;;;;19.73;100.00;100187.31;5044505;28;20940;-50
2022/09/06 03:35:55;;;;;;;7.33;0.70;;;;;;;19.64;100.00;100192.50;5038266;28;20454;-50
2022/09/06 03:38:22;;;;;;;0.87;0.87;;;;;;;19.47;100.00;100182.81;5037409;28;20462;-50
2022/09/06 03:40:49;;;;;;;1.07;1.00;;;;;;;19.55;100.00;100190.41;5042259;28;20805;-50
2022/09/06 03:43:17;;;;;;;1.60;0.60;;;;;;;19.62;100.00;100189.91;5026769;28;20490;-50
2022/09/06 03:45:48;;;;;;;0.77;0.77;;;;;;;19.64;100.00;100193.34;5040098;28;20447;-50
2022/09/06 03:48:16;;;;;;;1.40;1.30;;;;;;;19.64;100.00;100196.06;5037550;28;20447;-50
2022/09/06 03:50:48;;;;;;;3.13;1.00;;;;;;;19.62;100.00;100200.69;5041699;28;20453;-50
2022/09/06 03:53:16;;;;;;;1.40;1.30;;;;;;;19.62;100.00;100205.22;5044139;28;20451;-51
2022/09/06 03:55:47;;;;;;;0.83;0.83;;;;;;;19.51;100.00;100192.41;5041927;28;20455;-50
2022/09/06 03:58:15;;;;;;;8.53;2.70;;;;;;;19.43;100.00;100189.38;5037254;28;20450;-51
2022/09/06 04:00:43;;;;;;;1.73;1.63;;;;;;;19.34;100.00;100195.38;5062519;28;20453;-50
2022/09/06 04:03:10;;;;;;;0.83;0.80;;;;;;;19.22;100.00;100189.84;5037957;28;20494;-51
2022/09/06 04:05:36;;;;;;;1.70;1.33;;;;;;;19.20;100.00;100188.22;5037444;28;20458;-50
2022/09/06 04:08:04;;;;;;;2.47;1.30;;;;;;;19.19;100.00;100191.88;5042375;28;20460;-50
2022/09/06 04:10:32;;;;;;;1.03;0.93;;;;;;;19.11;100.00;100197.75;5043793;28;20533;-50
2022/09/06 04:12:58;;;;;;;1.70;1.60;;;;;;;19.06;100.00;100202.59;5040806;28;20458;-50
2022/09/06 04:15:25;;;;;;;1.07;0.97;;;;;;;18.93;100.00;100191.75;5036793;28;20494;-50
2022/09/06 04:17:51;;;;;;;1.77;0.93;;;;;;;18.92;100.00;100206.19;5041904;28;20475;-50
2022/09/06 04:20:18;;;;;;;5.67;1.20;;;;;;;18.77;100.00;100212.53;5043857;28;20465;-50
2022/09/06 04:22:44;;;;;;;1.83;0.80;;;;;;;18.58;100.00;100218.19;5038666;28;20501;-50
2022/09/06 04:25:12;;;;;;;2.90;1.57;;;;;;;18.63;100.00;100215.19;5036383;28;20455;-50
2022/09/06 04:27:39;;;;;;;0.83;0.60;;;;;;;18.94;100.00;100209.63;5041080;28;20472;-50
2022/09/06 04:30:06;;;;;;;3.57;2.37;;;;;;;18.70;100.00;100215.72;5043396;28;20478;-50
2022/09/06 04:32:32;;;;;;;1.90;1.80;;;;;;;18.70;100.00;100224.66;5038875;28;20827;-50
2022/09/06 04:34:59;;;;;;;0.93;0.87;;;;;;;18.49;100.00;100217.88;5036889;28;20455;-50
2022/09/06 04:37:25;;;;;;;8.60;1.10;;;;;;;18.38;100.00;100223.09;5041451;28;20563;-50
2022/09/06 04:39:52;;;;;;;1.10;1.00;;;;;;;18.39;100.00;100236.44;5043131;28;20942;-50
2022/09/06 04:42:19;;;;;;;1.30;0.77;;;;;;;18.24;100.00;100238.25;5039495;28;20486;-50
2022/09/06 04:44:46;;;;;;;1.20;1.10;;;;;;;17.76;100.00;100234.84;5036580;28;21024;-50
2022/09/06 04:47:14;;;;;;;1.63;1.43;;;;;;;18.10;100.00;100227.47;5039808;28;20487;-50
2022/09/06 04:49:41;;;;;;;1.57;1.47;;;;;;;18.31;100.00;100236.03;5042948;28;20463;-50
2022/09/06 04:52:08;;;;;;;5.23;2.73;;;;;;;18.27;100.00;100229.13;5040218;28;20473;-50
2022/09/06 04:54:35;;;;;;;9.77;1.20;;;;;;;18.17;100.00;100253.03;5036080;28;20454;-50
2022/09/06 04:57:01;;;;;;;1.83;1.37;;;;;;;18.36;100.00;100244.69;5038667;28;20471;-50
2022/09/06 04:59:28;;;;;;;28.77;2.00;;;;;;;18.01;100.00;100250.41;5050601;28;20442;-52
2022/09/06 05:01:54;;;;;;;1.63;0.77;;;;;;;18.10;100.00;100249.00;5048520;28;20459;-50
2022/09/06 05:04:21;;;;;;;1.10;0.70;;;;;;;18.19;100.00;100252.94;5042711;28;21022;-50
2022/09/06 05:06:48;;;;;;;2.30;1.50;;;;;;;18.18;100.00;100259.28;5039473;28;20478;-50
2022/09/06 05:09:14;;;;;;;1.10;1.00;;;;;;;18.20;100.00;100260.91;5035882;28;20959;-51
2022/09/06 05:11:41;;;;;;;1.30;1.20;;;;;;;18.02;100.00;100256.66;5038146;28;20451;-50
2022/09/06 05:14:07;;;;;;;4.43;1.77;;;;;;;18.08;100.00;100268.84;5042677;28;20927;-50
2022/09/06 05:16:33;;;;;;;1.57;1.47;;;;;;;17.99;100.00;100267.59;5040317;28;20474;-51
2022/09/06 05:19:00;;;;;;;0.60;0.60;;;;;;;17.92;100.00;100267.09;5035668;28;20451;-50
2022/09/06 05:21:27;;;;;;;1.43;1.33;;;;;;;18.70;100.00;100258.81;5037642;28;20455;-50
2022/09/06 05:23:53;;;;;;;1.10;0.97;;;;;;;18.71;100.00;100255.16;5042447;28;20597;-51
2022/09/06 05:26:24;;;;;;;1.60;1.50;;;;;;;18.89;100.00;100260.22;5040753;28;20471;-50
2022/09/06 05:28:50;;;;;;;1.47;1.37;;;;;;;19.00;100.00;100267.63;5035679;28;20493;-51
2022/09/06 05:31:27;;;;;;;4.43;1.13;;;;;;;19.22;100.00;100264.44;5037109;28;20463;-50
2022/09/06 05:33:56;;;;;;;1.50;1.40;;;;;;;19.62;100.00;100264.56;5035945;28;20449;-49
2022/09/06 05:36:23;;;;;;;3.20;1.90;;;;;;;19.61;100.00;100270.91;5035292;28;20474;-51
2022/09/06 05:38:51;;;;;;;1.83;1.13;;;;;;;19.65;100.00;100275.13;5041157;28;20945;-50
2022/09/06 05:41:18;;;;;;;1.27;1.17;;;;;;;19.51;100.00;100284.97;5042290;28;20450;-50
2022/09/06 05:43:45;;;;;;;1.10;0.90;;;;;;;19.46;100.00;100291.59;5036630;28;20496;-50
2022/09/06 05:46:12;;;;;;;2.80;1.30;;;;;;;19.26;100.00;100287.53;5034771;28;20488;-51
2022/09/06 05:48:38;;;;;;;1.97;1.50;;;;;;;19.19;100.00;100292.47;5036877;28;20537;-50
2022/09/06 05:51:08;;;;;;;1.10;1.00;;;;;;;19.03;100.00;100291.69;5035282;28;20806;-50
2022/09/06 05:53:40;;;;;;;0.80;0.80;;;;;;;18.98;100.00;100292.94;5040546;28;20451;-50
2022/09/06 05:56:09;;;;;;;1.20;1.07;;;;;;;18.87;100.00;100297.16;5042612;28;20471;-50
2022/09/06 05:58:36;;;;;;;1.70;1.60;;;;;;;18.79;100.00;100298.63;5038415;28;20453;-50
2022/09/06 06:01:25;;;;;;;3.00;2.70;;;;;;;18.67;100.00;100308.34;5059030;28;20452;-50
2022/09/06 06:03:59;;;;;;;6.57;2.40;;;;;;;18.78;100.00;100299.59;5041676;28;20645;-51
2022/09/06 06:06:28;;;;;;;1.90;1.80;;;;;;;18.87;100.00;100310.63;5033592;28;20474;-50
2022/09/06 06:08:55;;;;;;;2.70;2.23;;;;;;;18.82;100.00;100311.91;5035176;28;20456;-51
2022/09/06 06:11:22;;;;;;;2.40;1.30;;;;;;;19.03;100.00;100317.75;5040510;28;20463;-50
2022/09/06 06:13:49;;;;;;;0.87;0.83;;;;;;;19.16;100.00;100318.72;5041881;28;20995;-50
2022/09/06 06:16:17;;;;;;;1.17;1.07;;;;;;;19.27;100.00;100318.03;5036770;28;20470;-51
2022/09/06 06:18:44;;;;;;;3.80;1.80;;;;;;;19.37;100.00;100308.41;5035175;28;20456;-50
2022/09/06 06:21:22;;;;;;;2.50;1.57;;;;;;;19.37;100.00;100309.25;5039064;28;20957;-49
2022/09/06 06:23:54;;;;;;;6.93;1.10;;;;;;;19.52;100.00;100312.78;5044379;28;20873;-51
2022/09/06 06:26:21;;;;;;;3.87;1.90;;;;;;;19.78;100.00;100311.97;5043714;28;20477;-52
2022/09/06 06:28:48;;;;;;;1.33;1.23;;;;;;;19.84;100.00;100321.47;5038590;28;20455;-50
2022/09/06 06:31:15;;;;;;;0.83;0.70;;;;;;;19.80;100.00;100323.53;5040929;28;20463;-49
2022/09/06 06:33:43;;;;;;;0.70;0.70;;;;;;;19.94;100.00;100321.75;5045702;28;20531;-50
2022/09/06 06:36:12;;;;;;;4.20;1.40;;;;;;;19.91;100.00;100320.13;5043898;28;20499;-50
2022/09/06 06:38:40;;;;;;;1.13;1.03;;;;;;;19.97;100.00;100326.94;5038369;28;20460;-51
2022/09/06 06:41:10;;;;;;;0.97;0.90;;;;;;;19.90;100.00;100310.31;5039407;28;20451;-51
2022/09/06 06:43:37;;;;;;;1.03;0.93;;;;;;;19.98;100.00;100316.03;5045266;28;20499;-50
2022/09/06 06:46:09;;;;;;;1.97;1.10;;;;;;;19.99;100.00;100317.75;5045113;28;20505;-51
2022/09/06 06:48:36;;;;;;;1.40;1.07;;;;;;;20.11;100.00;100314.22;5039650;28;20533;-51
2022/09/06 06:51:03;;;;;;;0.73;0.70;;;;;;;20.17;100.00;100315.66;5038691;28;20477;-51
2022/09/06 06:53:29;;;;;;;12.60;1.20;;;;;;;20.26;100.00;100314.16;5044115;28;20932;-50
2022/09/06 06:55:56;;;;;;;1.40;1.03;;;;;;;20.32;100.00;100325.41;5045423;28;21005;-52
2022/09/06 06:58:22;;;;;;;1.40;1.17;;;;;;;20.26;100.00;100322.25;5039705;28;20457;-50
2022/09/06 07:00:49;;;;;;;7.53;1.20;;;;;;;20.43;100.00;100322.03;5063902;28;20448;-52
2022/09/06 07:03:17;;;;;;;0.90;0.90;;;;;;;20.43;100.00;100315.75;5039615;28;20501;-50
2022/09/06 07:05:45;;;;;;;4.57;0.97;;;;;;;20.62;100.00;100317.06;5038286;28;20462;-50
2022/09/06 07:08:32;;;;;;;1.07;0.97;;;;;;;20.90;100.00;100325.94;5031587;28;20452;-50
2022/09/06 07:10:58;;;;;;;1.20;1.00;;;;;;;20.86;100.00;100319.88;5044954;28;20452;-50
2022/09/06 07:13:25;;;;;;;4.57;1.30;;;;;;;20.94;100.00;100317.50;5042929;28;20431;-51
2022/09/06 07:16:04;;;;;;;4.70;1.30;;;;;;;21.21;100.00;100325.47;5038000;28;20495;-50
2022/09/06 07:18:31;;;;;;;3.70;1.30;;;;;;;21.47;100.00;100323.59;5032006;28;20447;-51
2022/09/06 07:20:57;;;;;;;0.97;0.87;;;;;;;21.36;100.00;100331.63;5044452;28;20928;-50
2022/09/06 07:23:44;;;;;;;1.10;1.00;;;;;;;21.35;100.00;100332.59;5044222;28;20491;-51
2022/09/06 07:26:30;;;;;;;4.30;0.80;;;;;;;21.22;100.00;100332.59;5043803;28;21046;-50
2022/09/06 07:28:59;;;;;;;15.37;1.80;;;;;;;21.22;100.00;100339.84;5037816;28;20868;-50
2022/09/06 07:31:27;;;;;;;2.13;2.03;;;;;;;21.30;100.00;100337.50;5037690;28;20455;-52
2022/09/06 07:34:14;;;;;;;3.00;1.73;;;;;;;21.15;100.00;100334.03;5039766;28;20452;-52
2022/09/06 07:36:41;;;;;;;2.30;1.33;;;;;;;20.97;100.00;100336.22;5044210;28;20878;-50
2022/09/06 07:39:07;;;;;;;1.50;1.40;;;;;;;21.27;100.00;100341.28;5041126;28;20461;-49
2022/09/06 07:41:34;;;;;;;12.30;2.27;;;;;;;21.05;100.00;100335.66;5037421;28;20541;-50
2022/09/06 07:44:00;;;;;;;1.53;1.43;;;;;;;21.08;100.00;100337.25;5040902;28;20851;-50
2022/09/06 07:46:27;;;;;;;1.60;1.50;;;;;;;21.30;100.00;100348.31;5047583;28;20479;-51
2022/09/06 07:48:53;;;;;;;1.90;1.40;;;;;;;21.19;100.00;100340.06;5040706;28;20455;-50
2022/09/06 07:51:20;;;;;;;2.20;1.20;;;;;;;21.43;100.00;100349.16;5044133;28;20967;-51
2022/09/06 07:53:52;;;;;;;2.77;1.73;;;;;;;21.26;100.00;100338.69;5040678;28;20473;-50
2022/09/06 07:56:39;;;;;;;1.00;0.90;;;;;;;21.46;100.00;100348.06;5030858;28;20891;-51
2022/09/06 07:59:05;;;;;;;1.20;1.10;;;;;;;21.39;100.00;100353.06;5044881;28;20541;-51
2022/09/06 08:01:37;;;;;;;1.07;0.97;;;;;;;21.66;100.00;100354.72;5056152;28;20462;-51
2022/09/06 08:04:04;;;;;;;1.17;1.07;;;;;;;21.84;100.00;100347.94;5044016;28;20490;-50
2022/09/06 08:06:33;;;;;;;4.00;1.10;;;;;;;21.95;99.68;100352.56;5039463;28;20577;-50
2022/09/06 08:09:20;;;;;;;1.50;1.40;;;;;;;21.81;100.00;100345.47;5037198;28;20451;-51
2022/09/06 08:11:47;;;;;;;1.07;0.97;;;;;;;21.89;100.00;100349.31;5039353;28;20544;-51
2022/09/06 08:14:14;;;;;;;3.90;1.23;;;;;;;22.23;100.00;100351.38;5043938;28;20459;-51
2022/09/06 08:16:40;;;;;;;14.80;1.23;;;;;;;22.17;99.51;100342.72;5041938;28;20475;-51
2022/09/06 08:19:11;;;;;;;0.90;0.70;;;;;;;22.35;98.76;100345.91;5036484;28;20948;-51
2022/09/06 08:21:38;;;;;;;3.37;1.17;;;;;;;22.47;98.06;100353.06;5037375;28;20455;-50
2022/09/06 08:24:06;;;;;;;7.80;0.90;;;;;;;22.54;98.65;100345.34;5043395;28;20502;-51
2022/09/06 08:26:35;;;;;;;6.77;0.90;;;;;;;22.51;98.15;100347.41;5043225;28;20474;-51
2022/09/06 08:29:05;;;;;;;2.93;1.00;;;;;;;23.10;96.88;100340.03;5036897;28;20461;-51
2022/09/06 08:31:33;;;;;;;1.70;1.60;;;;;;;22.84;96.65;100349.38;5036357;28;20452;-52
2022/09/06 08:34:00;;;;;;;1.43;1.33;;;;;;;22.73;96.13;100355.59;5042500;28;20447;-51
2022/09/06 08:36:30;;;;;;;1.20;1.10;;;;;;;22.83;96.58;100345.78;5043393;28;20895;-51
2022/09/06 08:38:58;;;;;;;1.43;1.33;;;;;;;22.87;97.86;100341.84;5038120;28;20457;-51
2022/09/06 08:41:52;;;;;;;3.17;1.10;;;;;;;23.01;95.13;100341.63;5036773;28;20462;-51
2022/09/06 08:44:26;;;;;;;1.20;1.10;;;;;;;23.09;94.37;100345.59;5037403;28;20902;-51
2022/09/06 08:47:14;;;;;;;1.07;0.77;;;;;;;23.45;94.83;100347.19;5029577;28;20487;-51
2022/09/06 08:50:02;;;;;;;2.33;0.90;;;;;;;23.39;93.67;100347.69;5043596;28;20835;-51
2022/09/06 08:52:49;;;;;;;1.30;1.20;;;;;;;23.68;93.56;100353.47;5042256;28;20529;-51
2022/09/06 08:55:42;;;;;;;1.13;1.03;;;;;;;24.13;90.84;100340.66;5029289;28;20459;-51
2022/09/06 08:58:20;;;;;;;1.37;0.97;;;;;;;24.04;91.08;100341.41;5042998;28;20543;-51
2022/09/06 09:00:57;;;;;;;1.47;1.37;;;;;;;24.22;91.15;100326.28;5055665;28;20532;-53
2022/09/06 09:03:30;;;;;;;1.27;1.17;;;;;;;24.25;90.02;100328.72;5038863;28;20995;-52
2022/09/06 09:05:58;;;;;;;1.60;1.50;;;;;;;24.65;89.66;100325.34;5035596;28;20470;-51
2022/09/06 09:08:43;;;;;;;1.17;0.60;;;;;;;24.98;86.88;100322.41;5038861;28;20443;-51
2022/09/06 09:11:17;;;;;;;1.00;0.90;;;;;;;24.84;87.10;100317.31;5029087;28;20459;-51
2022/09/06 09:13:49;;;;;;;2.17;1.50;;;;;;;25.03;86.73;100316.59;5042531;28;20447;-51
2022/09/06 09:16:16;;;;;;;1.50;1.40;;;;;;;24.43;86.67;100308.19;5038656;28;20442;-51
2022/09/06 09:18:48;;;;;;;3.80;0.80;;;;;;;24.67;87.23;100316.09;5036235;28;20547;-51
2022/09/06 09:21:19;;;;;;;0.70;0.60;;;;;;;25.20;85.68;100307.78;5039656;28;20471;-51
2022/09/06 09:23:52;;;;;;;1.00;0.90;;;;;;;24.66;86.35;100302.59;5042174;28;20497;-51
2022/09/06 09:26:21;;;;;;;0.80;0.60;;;;;;;24.34;86.79;100289.94;5040602;28;20987;-51
2022/09/06 09:29:12;;;;;;;0.93;0.90;;;;;;;24.57;86.40;100289.81;5035906;28;20429;-51
2022/09/06 09:31:41;;;;;;;1.53;1.03;;;;;;;24.84;85.35;100298.28;5035582;28;20447;-51
2022/09/06 09:34:25;;;;;;;2.33;0.93;;;;;;;24.61;85.60;100299.41;5039509;28;20536;-52
2022/09/06 09:37:24;;;;;;;1.53;1.23;;;;;;;24.87;85.66;100303.44;5042463;28;20841;-51
2022/09/06 09:40:28;;;;;;;4.70;1.43;;;;;;;24.96;84.41;100294.47;5042540;28;20818;-51
2022/09/06 09:43:07;;;;;;;1.43;1.33;;;;;;;25.09;85.58;100300.59;5042246;28;21010;-51
2022/09/06 09:45:34;;;;;;;1.47;1.37;;;;;;;25.09;85.77;100286.13;5038428;28;20870;-51
2022/09/06 09:48:25;;;;;;;3.37;2.00;;;;;;;25.00;85.67;100290.50;5035309;28;20466;-51
2022/09/06 09:50:54;;;;;;;1.13;1.03;;;;;;;25.29;85.81;100281.59;5035817;28;20967;-51
2022/09/06 09:53:22;;;;;;;1.50;1.40;;;;;;;25.49;83.38;100277.91;5029216;28;20459;-51
2022/09/06 09:55:56;;;;;;;1.13;1.03;;;;;;;24.85;85.07;100278.25;5041910;28;20458;-51
2022/09/06 09:58:35;;;;;;;3.83;2.10;;;;;;;25.24;83.37;100259.41;5040251;28;20453;-52
2022/09/06 10:01:10;;;;;;;0.80;0.60;;;;;;;25.16;84.59;100259.22;5062498;28;20829;-52
2022/09/06 10:03:37;;;;;;;3.10;1.47;;;;;;;25.74;82.71;100256.66;5033322;28;20458;-51
2022/09/06 10:06:25;;;;;;;2.13;1.27;;;;;;;26.07;82.00;100258.97;5037677;28;20475;-52
2022/09/06 10:09:17;;;;;;;1.93;0.80;;;;;;;26.14;79.72;100259.25;5038939;28;20425;-51
2022/09/06 10:11:55;;;;;;;1.40;1.30;;;;;;;25.49;82.15;100267.03;5041881;28;20470;-52
2022/09/06 10:14:32;;;;;;;3.93;1.87;;;;;;;25.27;82.28;100264.56;5046270;28;20458;-51
2022/09/06 10:16:59;;;;;;;5.10;1.37;;;;;;;25.28;82.33;100267.13;5046148;28;20531;-51
2022/09/06 10:19:44;;;;;;;1.27;1.17;;;;;;;25.43;82.88;100259.44;5040925;28;20465;-51
2022/09/06 10:22:27;;;;;;;0.97;0.90;;;;;;;25.55;81.92;100252.88;5039395;28;20451;-51
2022/09/06 10:25:18;;;;;;;1.37;1.27;;;;;;;25.77;81.76;100257.25;5040042;28;20979;-52
2022/09/06 10:28:06;;;;;;;0.93;0.90;;;;;;;26.29;79.50;100261.38;5032380;28;20475;-51
2022/09/06 10:30:52;;;;;;;1.50;1.33;;;;;;;26.64;79.42;100257.19;5028527;28;20938;-51
2022/09/06 10:33:42;;;;;;;1.77;1.67;;;;;;;26.37;78.78;100259.84;5045728;28;20534;-51
2022/09/06 10:36:09;;;;;;;1.03;0.90;;;;;;;26.46;78.31;100262.56;5043285;28;20473;-51
2022/09/06 10:38:56;;;;;;;3.57;1.43;;;;;;;26.70;77.99;100253.00;5038406;28;20959;-52
2022/09/06 10:41:46;;;;;;;2.10;1.20;;;;;;;26.38;77.45;100239.75;5038535;28;20509;-50
2022/09/06 10:44:51;;;;;;;1.30;1.20;;;;;;;26.65;77.64;100244.41;5041639;28;20492;-51
2022/09/06 10:47:18;;;;;;;1.20;0.77;;;;;;;27.02;76.22;100234.41;5033509;28;21026;-51
2022/09/06 10:49:51;;;;;;;1.20;1.10;;;;;;;27.20;75.89;100228.13;5045568;28;20512;-51
2022/09/06 10:52:30;;;;;;;1.77;1.67;;;;;;;27.65;74.56;100229.00;5042188;28;20432;-51
2022/09/06 10:55:04;;;;;;;1.17;1.07;;;;;;;27.13;76.13;100228.72;5038526;28;20473;-52
2022/09/06 10:57:43;;;;;;;5.83;1.37;;;;;;;26.88;76.16;100234.88;5021169;28;20453;-50
2022/09/06 11:00:35;;;;;;;1.20;1.10;;;;;;;27.16;76.52;100235.78;5055848;28;20461;-51
2022/09/06 11:03:29;;;;;;;2.70;1.33;;;;;;;27.42;75.33;100236.78;5038800;28;20425;-50
2022/09/06 11:06:18;;;;;;;1.70;1.60;;;;;;;27.79;73.20;100229.47;5038314;28;20809;-51
2022/09/06 11:09:11;;;;;;;1.10;0.77;;;;;;;27.46;75.31;100229.13;5038036;28;20509;-51
2022/09/06 11:11:49;;;;;;;1.27;1.17;;;;;;;27.98;72.81;100223.88;5041718;28;20451;-51
2022/09/06 11:14:20;;;;;;;8.63;1.70;;;;;;;28.15;72.14;100222.97;5044693;28;20439;-52
2022/09/06 11:17:04;;;;;;;0.60;0.60;;;;;;;27.76;71.64;100219.72;5043455;28;20836;-51
2022/09/06 11:19:39;;;;;;;1.40;1.13;;;;;;;27.99;72.45;100217.38;5039301;28;20458;-52
2022/09/06 11:22:43;;;;;;;1.40;0.90;;;;;;;28.26;71.77;100214.56;5037993;28;20946;-51
2022/09/06 11:25:38;;;;;;;1.23;0.93;;;;;;;27.85;72.97;100207.00;5048730;28;20497;-52
2022/09/06 11:28:12;;;;;;;2.40;1.10;;;;;;;27.90;71.70;100210.13;5042733;28;20806;-52
2022/09/06 11:30:43;;;;;;;0.80;0.63;;;;;;;28.28;71.62;100200.72;5037753;28;20956;-52
2022/09/06 11:33:28;;;;;;;7.60;1.17;;;;;;;28.32;70.77;100189.31;5038474;28;20422;-51
2022/09/06 11:36:25;;;;;;;3.37;1.07;;;;;;;28.59;70.29;100199.22;5030961;28;20957;-51
2022/09/06 11:39:01;;;;;;;0.97;0.97;;;;;;;28.64;69.43;100195.97;5030917;28;20426;-51
2022/09/06 11:41:34;;;;;;;0.93;0.90;;;;;;;29.00;68.98;100195.88;5044410;28;20425;-52
2022/09/06 11:44:01;;;;;;;1.60;1.40;;;;;;;29.01;68.65;100197.56;5039540;28;20448;-52
2022/09/06 11:46:34;;;;;;;2.10;1.20;;;;;;;28.88;67.58;100192.56;5035984;28;20472;-51